Time;durP1;ratioP1;P1;durP2;ratioP2;P2;SDS_P1;SDS_P2;PMS_P1;PMS_P2;Temp;Humidity;BMP_temperature;BMP_pressure;BME280_temperature;BME280_humidity;BME280_pressure;Samples;Min_cycle;Max_cycle;Signal;HPM_P1;HPM_P2
2021/05/30 00:02:06;;;;;;;3.40;0.85;;;23.90;45.70;;;;;;5027958;28;20056;-64
2021/05/30 00:04:31;;;;;;;1.77;0.63;;;23.90;45.70;;;;;;5026854;28;20037;-62
2021/05/30 00:06:57;;;;;;;1.25;0.90;;;23.90;45.80;;;;;;5010633;28;20080;-63
2021/05/30 00:09:23;;;;;;;0.52;0.50;;;23.90;46.30;;;;;;5026681;28;20037;-62
2021/05/30 00:11:48;;;;;;;1.50;0.75;;;23.90;45.70;;;;;;5026717;28;20460;-63
2021/05/30 00:14:14;;;;;;;1.15;0.70;;;23.90;45.70;;;;;;5029158;28;20025;-62
2021/05/30 00:16:40;;;;;;;1.33;0.80;;;23.90;45.80;;;;;;5020207;28;20030;-62
2021/05/30 00:19:05;;;;;;;0.75;0.60;;;23.90;45.80;;;;;;5019630;28;20071;-63
2021/05/30 00:21:31;;;;;;;1.63;0.73;;;23.90;45.80;;;;;;5018902;28;20125;-62
2021/05/30 00:23:58;;;;;;;0.85;0.68;;;23.90;45.80;;;;;;5027067;28;20033;-62
2021/05/30 00:26:25;;;;;;;1.50;0.77;;;23.90;45.80;;;;;;5025749;28;20044;-63
2021/05/30 00:28:51;;;;;;;0.73;0.60;;;23.80;45.70;;;;;;5027667;28;20048;-62
2021/05/30 00:31:16;;;;;;;2.15;0.80;;;23.80;45.80;;;;;;5012299;28;20584;-62
2021/05/30 00:33:42;;;;;;;1.70;0.90;;;23.80;46.30;;;;;;5028261;28;20025;-63
2021/05/30 00:36:08;;;;;;;2.03;1.10;;;23.80;45.70;;;;;;5026107;28;20033;-61
2021/05/30 00:38:34;;;;;;;1.42;0.80;;;23.80;45.70;;;;;;5028970;28;20482;-62
2021/05/30 00:41:00;;;;;;;1.10;0.70;;;23.70;45.70;;;;;;5028010;28;20105;-61
2021/05/30 00:43:25;;;;;;;1.10;0.70;;;23.80;45.70;;;;;;5018602;28;20116;-61
2021/05/30 00:45:51;;;;;;;1.27;0.80;;;23.80;45.70;;;;;;5025422;28;20026;-62
2021/05/30 00:48:17;;;;;;;1.38;0.82;;;23.80;45.70;;;;;;5028014;28;20479;-62
2021/05/30 00:50:43;;;;;;;1.80;0.70;;;23.70;46.20;;;;;;5029000;28;20348;-63
2021/05/30 00:53:10;;;;;;;0.80;0.63;;;23.70;46.20;;;;;;5028549;28;20102;-62
2021/05/30 00:55:36;;;;;;;0.90;0.73;;;23.70;45.60;;;;;;5016558;28;20032;-62
2021/05/30 00:58:03;;;;;;;1.20;0.70;;;23.70;46.20;;;;;;5019434;28;20192;-62
2021/05/30 01:00:28;;;;;;;1.55;0.80;;;23.70;45.70;;;;;;5024280;28;20776;-61
2021/05/30 01:02:54;;;;;;;0.88;0.70;;;23.70;45.60;;;;;;5015650;28;20034;-62
2021/05/30 01:05:20;;;;;;;1.30;0.70;;;23.70;45.60;;;;;;5028431;28;20467;-62
2021/05/30 01:07:47;;;;;;;1.42;0.70;;;23.70;45.70;;;;;;5029573;28;20035;-62
2021/05/30 01:10:18;;;;;;;1.35;0.70;;;23.60;45.60;;;;;;5011812;28;20036;-63
2021/05/30 01:12:46;;;;;;;1.13;0.77;;;23.70;45.60;;;;;;5029062;28;20444;-63
2021/05/30 01:15:13;;;;;;;0.68;0.60;;;23.60;45.50;;;;;;5028517;28;20025;-62
2021/05/30 01:17:39;;;;;;;1.13;0.70;;;23.70;45.60;;;;;;5028127;28;20033;-62
2021/05/30 01:20:10;;;;;;;1.08;0.70;;;23.60;45.60;;;;;;5014412;28;20065;-61
2021/05/30 01:22:37;;;;;;;0.88;0.60;;;23.60;45.60;;;;;;5021379;28;20053;-61
2021/05/30 01:25:04;;;;;;;1.75;0.70;;;23.60;45.60;;;;;;5021645;28;20037;-61
2021/05/30 01:27:30;;;;;;;0.75;0.70;;;23.60;45.60;;;;;;5027368;28;20364;-62
2021/05/30 01:29:55;;;;;;;1.25;0.60;;;23.60;45.60;;;;;;5028437;28;20025;-62
2021/05/30 01:32:21;;;;;;;2.05;0.63;;;23.60;45.60;;;;;;5027803;28;20037;-62
2021/05/30 01:34:47;;;;;;;1.77;0.77;;;23.60;45.50;;;;;;5026190;28;20025;-62
2021/05/30 01:37:12;;;;;;;1.83;0.80;;;23.60;45.50;;;;;;5026947;28;20033;-63
2021/05/30 01:39:38;;;;;;;0.73;0.60;;;23.60;45.60;;;;;;5027047;28;20033;-62
2021/05/30 01:42:04;;;;;;;1.00;0.60;;;23.50;45.50;;;;;;5026318;28;20029;-62
2021/05/30 01:44:30;;;;;;;1.25;0.80;;;23.50;45.50;;;;;;5021442;28;20025;-62
2021/05/30 01:46:55;;;;;;;0.98;0.80;;;23.50;45.50;;;;;;5025432;28;20040;-62
2021/05/30 01:49:21;;;;;;;1.27;0.68;;;23.50;45.50;;;;;;5027576;28;20041;-62
2021/05/30 01:51:47;;;;;;;1.27;0.70;;;23.50;45.50;;;;;;5028699;28;20045;-63
2021/05/30 01:54:15;;;;;;;1.00;0.70;;;23.50;45.50;;;;;;5026509;28;20717;-62
2021/05/30 01:56:56;;;;;;;0.97;0.70;;;23.50;45.50;;;;;;5027052;28;20080;-62
2021/05/30 01:59:27;;;;;;;0.98;0.73;;;23.50;45.50;;;;;;5024491;28;20038;-62
2021/05/30 02:01:58;;;;;;;1.17;0.60;;;23.40;45.50;;;;;;5026232;28;20390;-63
2021/05/30 02:04:32;;;;;;;1.17;0.80;;;23.40;45.50;;;;;;5025770;28;20048;-62
2021/05/30 02:06:59;;;;;;;1.63;0.80;;;23.40;45.50;;;;;;5014322;28;20018;-63
2021/05/30 02:09:26;;;;;;;0.90;0.70;;;23.40;45.50;;;;;;5025521;28;20033;-63
2021/05/30 02:11:52;;;;;;;1.42;0.85;;;23.40;46.00;;;;;;5024055;28;20040;-63
2021/05/30 02:14:19;;;;;;;0.93;0.70;;;23.40;45.50;;;;;;5025346;28;20037;-63
2021/05/30 02:16:46;;;;;;;2.17;0.70;;;23.40;45.50;;;;;;5027168;28;20047;-63
2021/05/30 02:19:12;;;;;;;1.45;0.70;;;23.40;45.50;;;;;;5027043;28;20167;-63
2021/05/30 02:21:43;;;;;;;1.17;0.80;;;23.40;45.50;;;;;;5027219;28;20033;-63
2021/05/30 02:24:09;;;;;;;0.85;0.60;;;23.40;46.00;;;;;;5028404;28;20872;-61
2021/05/30 02:26:36;;;;;;;1.00;0.70;;;23.30;45.40;;;;;;5024680;28;20467;-61
2021/05/30 02:29:02;;;;;;;1.05;0.70;;;23.30;45.40;;;;;;5027788;28;20025;-62
2021/05/30 02:31:27;;;;;;;2.55;1.10;;;23.30;45.40;;;;;;5025678;28;20041;-63
2021/05/30 02:33:53;;;;;;;1.33;0.80;;;23.30;45.40;;;;;;5023412;28;20479;-63
2021/05/30 02:36:19;;;;;;;1.38;0.80;;;23.30;45.50;;;;;;5021201;28;20571;-63
2021/05/30 02:38:44;;;;;;;1.30;0.80;;;23.30;45.40;;;;;;5025689;28;20043;-62
2021/05/30 02:41:10;;;;;;;1.02;0.70;;;23.30;45.40;;;;;;5023463;28;20301;-62
2021/05/30 02:43:35;;;;;;;0.88;0.68;;;23.30;45.50;;;;;;5022169;28;20433;-63
2021/05/30 02:46:02;;;;;;;1.02;0.73;;;23.30;45.40;;;;;;5018082;28;20064;-63
2021/05/30 02:48:28;;;;;;;1.10;0.68;;;23.30;45.50;;;;;;5026183;28;20101;-63
2021/05/30 02:51:00;;;;;;;0.60;0.60;;;23.30;45.50;;;;;;5025620;28;20156;-63
2021/05/30 02:53:27;;;;;;;1.05;0.60;;;23.30;45.50;;;;;;5028243;28;20191;-63
2021/05/30 02:55:53;;;;;;;1.40;0.70;;;23.30;45.50;;;;;;5022872;28;20099;-63
2021/05/30 02:58:19;;;;;;;1.35;0.70;;;23.20;45.40;;;;;;5020069;28;20438;-62
2021/05/30 03:00:44;;;;;;;1.00;0.75;;;23.20;45.40;;;;;;5017023;28;20052;-62
2021/05/30 03:03:10;;;;;;;0.70;0.70;;;23.20;45.40;;;;;;5026763;28;20025;-63
2021/05/30 03:05:36;;;;;;;1.15;0.80;;;23.20;45.40;;;;;;5023145;28;20030;-63
2021/05/30 03:08:01;;;;;;;1.58;0.80;;;23.20;45.50;;;;;;5026859;28;20384;-61
2021/05/30 03:10:27;;;;;;;1.00;0.70;;;23.20;45.40;;;;;;5022833;28;20471;-61
2021/05/30 03:12:52;;;;;;;0.68;0.60;;;23.20;45.40;;;;;;5024588;28;20025;-61
2021/05/30 03:15:18;;;;;;;1.38;0.70;;;23.10;45.40;;;;;;5023965;28;20046;-62
2021/05/30 03:17:44;;;;;;;1.40;0.80;;;23.10;45.50;;;;;;5024578;28;20112;-62
2021/05/30 03:20:10;;;;;;;2.00;0.70;;;23.10;45.40;;;;;;5024232;28;20030;-62
2021/05/30 03:22:36;;;;;;;1.00;0.70;;;23.10;45.50;;;;;;5026068;28;20105;-62
2021/05/30 03:25:02;;;;;;;1.27;0.80;;;23.10;45.50;;;;;;5026748;28;20053;-63
2021/05/30 03:27:27;;;;;;;1.25;0.80;;;23.10;45.40;;;;;;5030042;28;20111;-63
2021/05/30 03:29:56;;;;;;;0.82;0.65;;;23.10;45.50;;;;;;5029346;28;20814;-63
2021/05/30 03:32:22;;;;;;;1.13;0.70;;;23.10;45.50;;;;;;5025110;28;20092;-62
2021/05/30 03:34:47;;;;;;;0.70;0.70;;;23.10;45.40;;;;;;5038370;28;20030;-63
2021/05/30 03:37:13;;;;;;;0.65;0.60;;;23.10;45.50;;;;;;5026181;28;20026;-63
2021/05/30 03:39:42;;;;;;;0.95;0.70;;;23.10;45.50;;;;;;5031296;28;20545;-63
2021/05/30 03:42:13;;;;;;;1.02;0.80;;;23.10;45.50;;;;;;5023956;28;20025;-62
2021/05/30 03:44:39;;;;;;;1.13;0.70;;;23.00;45.40;;;;;;5025202;28;20029;-62
2021/05/30 03:47:05;;;;;;;1.05;0.70;;;23.00;45.50;;;;;;5024770;28;20088;-63
2021/05/30 03:49:31;;;;;;;0.73;0.70;;;23.00;45.50;;;;;;5024235;28;20038;-63
2021/05/30 03:51:56;;;;;;;1.45;0.70;;;23.00;46.00;;;;;;5010822;28;20034;-62
2021/05/30 03:54:22;;;;;;;0.80;0.60;;;23.00;45.50;;;;;;5013678;28;20037;-63
2021/05/30 03:56:48;;;;;;;1.33;0.80;;;23.00;45.50;;;;;;5024898;28;20061;-62
2021/05/30 03:59:13;;;;;;;0.90;0.60;;;23.00;45.50;;;;;;5025475;28;20060;-62
2021/05/30 04:01:39;;;;;;;0.70;0.60;;;23.00;45.50;;;;;;5022630;28;20059;-63
2021/05/30 04:04:05;;;;;;;0.80;0.70;;;23.00;45.50;;;;;;5024804;28;20037;-63
2021/05/30 04:06:31;;;;;;;0.70;0.70;;;23.00;45.50;;;;;;5025127;28;20083;-62
2021/05/30 04:08:56;;;;;;;1.08;0.70;;;22.90;45.40;;;;;;5028233;28;20026;-62
2021/05/30 04:11:22;;;;;;;0.73;0.70;;;23.00;45.50;;;;;;5024442;28;20061;-62
2021/05/30 04:13:48;;;;;;;0.63;0.60;;;23.00;45.50;;;;;;5028823;28;20030;-63
2021/05/30 04:16:13;;;;;;;0.95;0.55;;;22.90;45.50;;;;;;5027370;28;20021;-63
2021/05/30 04:18:39;;;;;;;1.13;0.70;;;22.90;45.50;;;;;;5029014;28;20475;-63
2021/05/30 04:21:05;;;;;;;1.25;0.70;;;22.90;45.50;;;;;;5028496;28;20037;-63
2021/05/30 04:23:31;;;;;;;0.70;0.70;;;22.90;45.50;;;;;;5031178;28;20030;-63
2021/05/30 04:25:57;;;;;;;0.88;0.70;;;22.90;45.50;;;;;;5028483;28;20060;-62
2021/05/30 04:28:24;;;;;;;1.00;0.70;;;22.90;45.50;;;;;;5022555;28;20064;-62
2021/05/30 04:30:50;;;;;;;0.65;0.60;;;22.90;45.50;;;;;;5027702;28;20044;-62
2021/05/30 04:33:16;;;;;;;1.27;0.80;;;22.90;45.50;;;;;;5027016;28;20025;-62
2021/05/30 04:35:41;;;;;;;0.80;0.65;;;22.90;45.50;;;;;;5028051;28;20030;-63
2021/05/30 04:38:07;;;;;;;0.80;0.60;;;22.90;45.50;;;;;;5019363;28;20079;-63
2021/05/30 04:40:34;;;;;;;0.93;0.73;;;22.80;45.50;;;;;;5023094;28;20029;-62
2021/05/30 04:43:00;;;;;;;0.90;0.70;;;22.80;45.50;;;;;;5028387;28;20025;-62
2021/05/30 04:45:25;;;;;;;0.98;0.70;;;22.80;45.50;;;;;;5026606;28;20471;-62
2021/05/30 04:47:51;;;;;;;0.68;0.60;;;22.80;45.50;;;;;;5024453;28;20128;-63
2021/05/30 04:50:16;;;;;;;0.93;0.60;;;22.80;45.50;;;;;;5026537;28;20067;-63
2021/05/30 04:52:42;;;;;;;0.93;0.63;;;22.80;46.00;;;;;;5019201;28;20033;-61
2021/05/30 04:55:11;;;;;;;0.50;0.50;;;22.80;45.50;;;;;;5028413;28;20032;-62
2021/05/30 04:57:38;;;;;;;0.82;0.60;;;22.80;45.50;;;;;;5028073;28;20036;-61
2021/05/30 05:00:06;;;;;;;0.80;0.60;;;22.80;45.50;;;;;;5020626;28;20044;-62
2021/05/30 05:02:32;;;;;;;0.60;0.60;;;22.80;45.50;;;;;;5027424;28;20464;-62
2021/05/30 05:04:58;;;;;;;1.00;0.60;;;22.80;45.50;;;;;;5025739;28;20175;-61
2021/05/30 05:07:23;;;;;;;0.70;0.65;;;22.80;45.50;;;;;;5024610;28;20036;-63
2021/05/30 05:09:49;;;;;;;0.73;0.65;;;22.80;45.50;;;;;;5028663;28;20029;-62
2021/05/30 05:12:14;;;;;;;0.82;0.75;;;22.70;45.50;;;;;;5021074;28;20890;-61
2021/05/30 05:14:40;;;;;;;0.68;0.57;;;22.70;45.50;;;;;;5025475;28;20048;-63
2021/05/30 05:17:06;;;;;;;0.55;0.55;;;22.70;45.50;;;;;;5027962;28;20026;-62
2021/05/30 05:19:31;;;;;;;0.60;0.60;;;22.70;45.50;;;;;;5021891;28;20136;-62
2021/05/30 05:21:57;;;;;;;0.85;0.60;;;22.70;45.50;;;;;;5021308;28;20648;-63
2021/05/30 05:24:22;;;;;;;0.95;0.60;;;22.70;45.50;;;;;;5028702;28;20029;-62
2021/05/30 05:26:48;;;;;;;0.68;0.60;;;22.70;45.50;;;;;;5027758;28;20412;-63
2021/05/30 05:29:14;;;;;;;0.50;0.50;;;22.70;45.50;;;;;;5028827;28;20121;-63
2021/05/30 05:31:40;;;;;;;1.23;0.63;;;22.70;45.50;;;;;;5026675;28;20049;-63
2021/05/30 05:34:05;;;;;;;2.30;0.60;;;22.70;45.50;;;;;;5017028;28;20029;-63
2021/05/30 05:36:31;;;;;;;0.68;0.60;;;22.70;45.50;;;;;;5022755;28;20033;-63
2021/05/30 05:38:57;;;;;;;0.93;0.60;;;22.70;45.50;;;;;;5027590;28;20021;-63
2021/05/30 05:41:22;;;;;;;0.70;0.50;;;22.70;46.00;;;;;;5023733;28;20112;-63
2021/05/30 05:43:48;;;;;;;0.50;0.50;;;22.70;45.50;;;;;;5025939;28;20065;-63
2021/05/30 05:46:13;;;;;;;0.60;0.60;;;22.60;45.50;;;;;;5025484;28;20481;-63
2021/05/30 05:48:39;;;;;;;0.93;0.60;;;22.70;45.60;;;;;;5026806;28;20030;-64
2021/05/30 05:51:05;;;;;;;0.60;0.60;;;22.70;45.50;;;;;;5018380;28;20115;-63
2021/05/30 05:53:30;;;;;;;0.75;0.68;;;22.60;45.50;;;;;;5021877;28;20033;-63
2021/05/30 05:55:56;;;;;;;1.33;0.80;;;22.60;45.50;;;;;;5024483;28;20041;-61
2021/05/30 05:58:22;;;;;;;1.58;0.60;;;22.60;45.50;;;;;;5019250;28;20021;-61
2021/05/30 06:00:48;;;;;;;0.65;0.52;;;22.60;45.50;;;;;;5013320;28;20072;-61
2021/05/30 06:03:14;;;;;;;0.90;0.60;;;22.60;45.50;;;;;;5023967;28;20151;-61
2021/05/30 06:05:40;;;;;;;0.98;0.60;;;22.60;45.60;;;;;;5018154;28;20055;-61
2021/05/30 06:08:05;;;;;;;0.80;0.60;;;22.60;45.60;;;;;;5026948;28;20377;-61
2021/05/30 06:10:31;;;;;;;0.95;0.50;;;22.60;45.60;;;;;;5024613;28;20096;-61
2021/05/30 06:13:00;;;;;;;0.82;0.50;;;22.60;45.60;;;;;;5025312;28;20029;-61
2021/05/30 06:15:26;;;;;;;0.65;0.60;;;22.60;45.60;;;;;;5018544;28;20075;-62
2021/05/30 06:18:03;;;;;;;0.73;0.60;;;22.60;45.60;;;;;;5026435;28;20075;-61
2021/05/30 06:20:28;;;;;;;1.10;0.60;;;22.60;45.60;;;;;;5020077;28;20381;-61
2021/05/30 06:22:55;;;;;;;0.95;0.70;;;22.60;45.60;;;;;;5018593;28;20033;-61
2021/05/30 06:25:22;;;;;;;0.50;0.50;;;22.60;45.60;;;;;;5025888;28;20048;-61
2021/05/30 06:27:48;;;;;;;1.00;0.70;;;22.60;45.60;;;;;;5025305;28;20578;-61
2021/05/30 06:30:14;;;;;;;0.70;0.60;;;22.60;45.60;;;;;;5024252;28;20034;-61
2021/05/30 06:32:40;;;;;;;1.00;0.70;;;22.60;45.60;;;;;;5019945;28;20461;-61
2021/05/30 06:35:06;;;;;;;0.90;0.52;;;22.60;45.70;;;;;;5018580;28;20049;-61
2021/05/30 06:37:32;;;;;;;0.57;0.57;;;22.60;45.60;;;;;;5025163;28;20099;-61
2021/05/30 06:39:57;;;;;;;0.55;0.50;;;22.60;46.20;;;;;;5022632;28;20034;-61
2021/05/30 06:42:23;;;;;;;0.60;0.50;;;22.60;45.70;;;;;;5023713;28;20464;-61
2021/05/30 06:44:49;;;;;;;0.65;0.65;;;22.50;45.60;;;;;;5017810;28;20787;-61
2021/05/30 06:47:14;;;;;;;0.98;0.60;;;22.60;45.70;;;;;;5022253;28;20037;-61
2021/05/30 06:49:40;;;;;;;0.55;0.52;;;22.60;45.60;;;;;;5019513;28;20026;-61
2021/05/30 06:52:06;;;;;;;0.70;0.70;;;22.50;45.60;;;;;;5022782;28;20368;-60
2021/05/30 06:54:31;;;;;;;0.55;0.55;;;22.60;45.70;;;;;;5025853;28;20042;-61
2021/05/30 06:56:57;;;;;;;1.40;0.60;;;22.50;46.20;;;;;;5019414;28;20052;-61
2021/05/30 06:59:23;;;;;;;1.00;0.60;;;22.50;45.60;;;;;;5007012;28;20038;-61
2021/05/30 07:01:49;;;;;;;0.52;0.52;;;22.50;45.60;;;;;;5017121;28;20103;-61
2021/05/30 07:04:14;;;;;;;0.50;0.50;;;22.50;45.60;;;;;;5023406;28;20037;-61
2021/05/30 07:06:40;;;;;;;0.93;0.60;;;22.50;45.60;;;;;;5024379;28;20076;-61
2021/05/30 07:09:06;;;;;;;0.55;0.50;;;22.50;45.60;;;;;;5019506;28;20030;-61
2021/05/30 07:11:35;;;;;;;0.77;0.68;;;22.50;45.70;;;;;;5019925;28;20375;-61
2021/05/30 07:14:01;;;;;;;0.70;0.50;;;22.50;45.70;;;;;;5023926;28;20021;-61
2021/05/30 07:16:26;;;;;;;1.15;0.60;;;22.50;45.70;;;;;;5024133;28;20087;-61
2021/05/30 07:18:52;;;;;;;0.75;0.63;;;22.50;45.70;;;;;;5024078;28;20036;-61
2021/05/30 07:21:18;;;;;;;0.70;0.70;;;22.50;45.70;;;;;;5016708;28;20111;-61
2021/05/30 07:23:43;;;;;;;1.17;0.60;;;22.50;45.70;;;;;;5018693;28;20034;-61
2021/05/30 07:26:09;;;;;;;0.50;0.50;;;22.50;45.70;;;;;;5019658;28;20029;-60
2021/05/30 07:28:35;;;;;;;0.98;0.60;;;22.50;45.70;;;;;;5014883;28;20037;-61
2021/05/30 07:31:01;;;;;;;0.77;0.50;;;22.50;45.70;;;;;;5020489;28;20075;-61
2021/05/30 07:33:27;;;;;;;0.70;0.70;;;22.50;45.70;;;;;;5021125;28;20025;-62
2021/05/30 07:35:53;;;;;;;0.70;0.60;;;22.50;45.70;;;;;;5019928;28;20026;-62
2021/05/30 07:38:20;;;;;;;0.50;0.50;;;22.50;45.70;;;;;;5025353;28;20072;-61
2021/05/30 07:40:46;;;;;;;0.73;0.60;;;22.50;45.70;;;;;;5019108;28;20039;-61
2021/05/30 07:43:12;;;;;;;0.50;0.50;;;22.50;45.70;;;;;;5023968;28;20049;-62
2021/05/30 07:45:38;;;;;;;0.60;0.60;;;22.50;45.70;;;;;;5026147;28;20115;-62
2021/05/30 07:48:04;;;;;;;0.73;0.60;;;22.50;45.70;;;;;;5026926;28;20167;-62
2021/05/30 07:50:29;;;;;;;1.02;0.60;;;22.40;45.60;;;;;;5023391;28;20470;-62
2021/05/30 07:52:55;;;;;;;0.60;0.60;;;22.50;45.70;;;;;;5026483;28;20037;-62
2021/05/30 07:55:21;;;;;;;0.68;0.60;;;22.40;45.60;;;;;;5025348;28;20038;-61
2021/05/30 07:57:47;;;;;;;0.80;0.68;;;22.40;45.60;;;;;;5021037;28;20144;-62
2021/05/30 08:00:16;;;;;;;0.70;0.60;;;22.40;45.60;;;;;;5027249;28;20026;-61
2021/05/30 08:02:43;;;;;;;1.05;0.73;;;22.40;45.70;;;;;;5026831;28;20044;-61
2021/05/30 08:05:10;;;;;;;0.60;0.55;;;22.40;45.60;;;;;;5020873;28;20030;-61
2021/05/30 08:07:37;;;;;;;1.20;0.90;;;22.40;45.60;;;;;;5028551;28;20064;-61
2021/05/30 08:10:04;;;;;;;0.70;0.60;;;22.40;45.60;;;;;;5027185;28;20026;-62
2021/05/30 08:12:29;;;;;;;0.80;0.80;;;22.40;45.60;;;;;;5028537;28;20808;-63
2021/05/30 08:14:55;;;;;;;1.02;0.70;;;22.40;45.60;;;;;;5024700;28;20052;-63
2021/05/30 08:17:21;;;;;;;1.05;0.60;;;22.40;45.60;;;;;;5024580;28;20041;-64
2021/05/30 08:19:46;;;;;;;0.63;0.60;;;22.40;46.20;;;;;;5019733;28;20068;-63
2021/05/30 08:22:12;;;;;;;1.17;0.80;;;22.50;45.70;;;;;;5025913;28;20055;-63
2021/05/30 08:24:38;;;;;;;0.98;0.73;;;22.40;45.60;;;;;;5026535;28;20053;-63
2021/05/30 08:27:04;;;;;;;1.35;0.85;;;22.40;45.60;;;;;;5025540;28;20048;-63
2021/05/30 08:29:30;;;;;;;1.58;0.80;;;22.40;45.60;;;;;;5035507;28;20033;-63
2021/05/30 08:31:56;;;;;;;1.15;0.80;;;22.40;45.60;;;;;;5022023;28;20064;-63
2021/05/30 08:34:22;;;;;;;1.27;0.80;;;22.40;45.60;;;;;;5025246;28;20561;-63
2021/05/30 08:36:48;;;;;;;1.00;0.70;;;22.40;45.60;;;;;;5024822;28;20314;-63
2021/05/30 08:39:14;;;;;;;1.02;0.80;;;22.50;45.60;;;;;;5026828;28;20037;-63
2021/05/30 08:41:41;;;;;;;2.05;0.80;;;22.50;45.60;;;;;;5022004;28;20355;-62
2021/05/30 08:44:08;;;;;;;1.73;0.90;;;22.50;45.60;;;;;;5025938;28;20392;-63
2021/05/30 08:46:34;;;;;;;1.40;0.90;;;22.50;46.10;;;;;;5022458;28;20405;-63
2021/05/30 08:49:01;;;;;;;1.45;0.80;;;22.50;45.60;;;;;;5026652;28;20040;-63
2021/05/30 08:51:27;;;;;;;1.58;0.90;;;22.50;45.60;;;;;;5022263;28;20034;-62
2021/05/30 08:53:53;;;;;;;1.58;0.85;;;22.50;45.60;;;;;;5024807;28;20029;-62
2021/05/30 08:56:19;;;;;;;1.63;0.93;;;22.50;45.60;;;;;;5024181;28;20022;-63
2021/05/30 08:58:49;;;;;;;0.75;0.60;;;22.50;45.60;;;;;;5019790;28;20063;-63
2021/05/30 09:01:21;;;;;;;0.90;0.70;;;22.50;45.50;;;;;;5017166;28;20037;-63
2021/05/30 09:04:05;;;;;;;0.88;0.75;;;22.50;45.60;;;;;;5024814;28;20140;-63
2021/05/30 09:06:30;;;;;;;1.65;0.90;;;22.50;45.60;;;;;;5021289;28;20624;-62
2021/05/30 09:08:57;;;;;;;1.20;0.80;;;22.50;45.60;;;;;;5026068;28;20115;-63
2021/05/30 09:11:42;;;;;;;1.50;0.90;;;22.50;45.60;;;;;;5022661;28;20483;-63
2021/05/30 09:14:16;;;;;;;1.58;0.90;;;22.50;45.60;;;;;;5020330;28;20102;-62
2021/05/30 09:17:01;;;;;;;1.35;0.80;;;22.60;45.60;;;;;;5018451;28;20404;-63
2021/05/30 09:19:37;;;;;;;0.80;0.70;;;22.50;45.50;;;;;;5023048;28;20361;-63
2021/05/30 09:22:49;;;;;;;2.03;0.85;;;22.50;45.50;;;;;;5022159;28;20083;-63
2021/05/30 09:25:18;;;;;;;1.83;0.90;;;22.60;45.60;;;;;;4977739;28;20512;-62
2021/05/30 09:27:48;;;;;;;1.98;0.90;;;22.60;45.60;;;;;;5013096;28;20087;-61
2021/05/30 09:30:41;;;;;;;2.03;0.90;;;22.60;45.60;;;;;;5023931;28;20025;-61
2021/05/30 09:33:13;;;;;;;1.80;1.02;;;22.60;45.70;;;;;;5025185;28;20388;-62
2021/05/30 09:35:39;;;;;;;1.77;0.90;;;22.60;45.60;;;;;;5023014;28;20761;-62
2021/05/30 09:38:07;;;;;;;1.65;0.88;;;22.60;45.70;;;;;;5026742;28;20034;-62
2021/05/30 09:40:55;;;;;;;2.80;1.00;;;22.60;45.70;;;;;;5024870;28;20029;-62
2021/05/30 09:43:35;;;;;;;2.13;0.95;;;22.60;45.70;;;;;;5018872;28;20119;-62
2021/05/30 09:46:21;;;;;;;2.28;0.98;;;22.60;45.70;;;;;;5023540;28;20078;-61
2021/05/30 09:48:49;;;;;;;2.50;1.00;;;22.60;45.80;;;;;;5021747;28;20467;-61
2021/05/30 09:51:40;;;;;;;2.10;0.90;;;22.60;45.80;;;;;;5020148;28;20033;-62
2021/05/30 09:54:17;;;;;;;3.72;1.10;;;22.60;46.00;;;;;;5009295;28;20041;-62
2021/05/30 09:56:47;;;;;;;3.55;1.30;;;22.60;45.70;;;;;;5010898;28;20099;-62
2021/05/30 09:59:14;;;;;;;3.13;1.17;;;22.60;44.90;;;;;;5022183;28;20083;-62
2021/05/30 10:01:46;;;;;;;2.00;1.23;;;22.60;44.30;;;;;;5023447;28;20064;-62
2021/05/30 10:04:13;;;;;;;3.05;1.20;;;22.60;43.70;;;;;;5027830;28;20417;-62
2021/05/30 10:06:40;;;;;;;1.92;1.23;;;22.60;43.60;;;;;;5026838;28;20155;-62
2021/05/30 10:09:06;;;;;;;3.25;1.52;;;22.60;43.70;;;;;;5026765;28;20116;-62
2021/05/30 10:11:31;;;;;;;2.05;1.15;;;22.60;42.70;;;;;;5024980;28;21996;-63
2021/05/30 10:13:57;;;;;;;1.85;1.27;;;22.60;41.60;;;;;;5024659;28;20441;-63
2021/05/30 10:16:23;;;;;;;2.13;1.20;;;22.60;41.30;;;;;;5025010;28;20116;-63
2021/05/30 10:18:53;;;;;;;2.03;1.20;;;22.60;41.00;;;;;;5025088;28;20044;-63
2021/05/30 10:21:20;;;;;;;1.38;1.10;;;22.60;41.50;;;;;;5018968;28;20022;-63
2021/05/30 10:23:50;;;;;;;1.50;1.05;;;22.60;41.20;;;;;;5027053;28;20029;-62
2021/05/30 10:26:23;;;;;;;1.77;1.17;;;22.60;41.30;;;;;;5023843;28;20037;-63
2021/05/30 10:28:54;;;;;;;1.92;1.10;;;22.60;41.40;;;;;;5011064;28;20037;-62
2021/05/30 10:31:22;;;;;;;1.90;1.15;;;22.60;41.70;;;;;;5022815;28;20100;-61
2021/05/30 10:34:10;;;;;;;1.70;1.20;;;22.60;41.90;;;;;;5017010;28;20033;-62
2021/05/30 10:36:36;;;;;;;1.70;1.10;;;22.60;42.30;;;;;;5026935;28;20101;-63
2021/05/30 10:39:03;;;;;;;1.85;1.15;;;22.60;42.70;;;;;;5022341;28;20034;-62
2021/05/30 10:41:28;;;;;;;2.47;1.30;;;22.60;42.80;;;;;;5038286;28;20112;-64
2021/05/30 10:43:54;;;;;;;2.25;1.25;;;22.70;43.00;;;;;;5026097;28;20108;-61
2021/05/30 10:46:22;;;;;;;2.20;1.27;;;22.70;43.10;;;;;;5025640;28;20630;-62
2021/05/30 10:49:08;;;;;;;2.70;1.60;;;22.70;43.10;;;;;;5028087;28;20029;-62
2021/05/30 10:51:49;;;;;;;1.92;1.30;;;22.70;43.20;;;;;;5023578;28;20040;-62
2021/05/30 10:54:14;;;;;;;3.75;1.45;;;22.80;43.30;;;;;;5025621;28;20236;-61
2021/05/30 10:56:46;;;;;;;2.42;1.50;;;22.80;43.20;;;;;;5029206;28;20069;-62
2021/05/30 10:59:14;;;;;;;3.60;1.30;;;22.80;43.20;;;;;;5028301;28;20036;-62
2021/05/30 11:01:41;;;;;;;2.58;1.40;;;22.80;43.10;;;;;;5031940;28;20041;-62
2021/05/30 11:04:31;;;;;;;2.10;1.30;;;22.80;43.10;;;;;;5025288;28;20358;-62
2021/05/30 11:07:04;;;;;;;3.30;1.35;;;22.90;43.20;;;;;;5017175;28;20136;-62
2021/05/30 11:09:48;;;;;;;2.13;1.40;;;22.90;43.20;;;;;;5022254;28;20045;-62
2021/05/30 11:12:34;;;;;;;2.78;1.40;;;22.90;43.20;;;;;;5015366;28;20263;-63
2021/05/30 11:15:09;;;;;;;1.70;1.20;;;22.90;43.20;;;;;;5023982;28;20116;-62
2021/05/30 11:17:38;;;;;;;2.95;1.40;;;22.90;43.10;;;;;;5018938;28;20030;-62
2021/05/30 11:20:06;;;;;;;2.92;1.20;;;23.00;43.10;;;;;;5023225;28;20108;-63
2021/05/30 11:22:58;;;;;;;2.50;1.20;;;23.00;43.10;;;;;;5021375;28;20072;-63
2021/05/30 11:25:37;;;;;;;1.90;1.15;;;23.00;43.10;;;;;;5021031;28;20053;-62
2021/05/30 11:28:11;;;;;;;2.00;1.10;;;23.00;43.00;;;;;;5029696;28;20055;-62
2021/05/30 11:30:44;;;;;;;2.05;1.27;;;23.00;43.00;;;;;;5026114;28;20140;-62
2021/05/30 11:33:13;;;;;;;2.92;1.40;;;23.00;43.00;;;;;;5028879;28;20025;-63
2021/05/30 11:35:38;;;;;;;2.85;1.20;;;23.00;43.00;;;;;;5026561;28;20598;-63
2021/05/30 11:38:05;;;;;;;2.50;1.38;;;23.10;43.10;;;;;;5025805;28;20033;-62
2021/05/30 11:40:34;;;;;;;1.63;1.20;;;23.10;43.10;;;;;;5025330;28;20111;-63
2021/05/30 11:43:14;;;;;;;2.50;1.17;;;23.10;43.20;;;;;;5027177;28;20036;-63
2021/05/30 11:45:42;;;;;;;2.40;1.33;;;23.10;43.20;;;;;;5014558;28;20033;-61
2021/05/30 11:48:11;;;;;;;1.35;0.98;;;23.10;43.30;;;;;;5026864;28;20036;-62
2021/05/30 11:50:40;;;;;;;2.47;1.30;;;23.10;43.30;;;;;;5025257;28;20647;-62
2021/05/30 11:53:07;;;;;;;2.05;1.00;;;23.10;43.40;;;;;;5028763;28;20916;-62
2021/05/30 11:55:33;;;;;;;1.65;1.17;;;23.10;43.40;;;;;;5026612;28;20032;-62
2021/05/30 11:58:06;;;;;;;2.80;1.40;;;23.10;43.40;;;;;;5025566;28;20601;-61
2021/05/30 12:00:32;;;;;;;2.25;1.30;;;23.20;43.50;;;;;;5010901;28;20091;-62
2021/05/30 12:03:06;;;;;;;3.28;1.48;;;23.20;43.50;;;;;;5027423;28;20121;-62
2021/05/30 12:05:31;;;;;;;3.33;1.50;;;23.30;43.60;;;;;;5026027;28;20313;-62
2021/05/30 12:07:57;;;;;;;1.55;1.02;;;23.30;43.60;;;;;;5016558;28;20125;-62
2021/05/30 12:10:22;;;;;;;3.75;1.60;;;23.30;43.70;;;;;;5027762;28;20087;-62
2021/05/30 12:12:48;;;;;;;1.55;1.00;;;23.30;43.70;;;;;;5028585;28;20334;-62
2021/05/30 12:15:21;;;;;;;2.05;1.10;;;23.30;43.70;;;;;;5026862;28;20707;-60
2021/05/30 12:18:01;;;;;;;3.42;1.38;;;23.30;43.60;;;;;;5025137;28;20171;-59
2021/05/30 12:20:29;;;;;;;1.83;1.02;;;23.40;43.60;;;;;;5026821;28;20460;-62
2021/05/30 12:23:12;;;;;;;1.90;1.20;;;23.40;43.60;;;;;;5026493;28;20417;-62
2021/05/30 12:26:00;;;;;;;3.47;1.10;;;23.40;43.70;;;;;;5023259;28;20068;-63
2021/05/30 12:28:33;;;;;;;1.83;1.10;;;23.40;43.70;;;;;;5024467;28;20033;-61
2021/05/30 12:31:05;;;;;;;2.50;1.20;;;23.40;43.70;;;;;;5024271;28;20042;-62
2021/05/30 12:33:51;;;;;;;2.03;1.40;;;23.50;43.80;;;;;;5022426;28;21651;-62
2021/05/30 12:36:31;;;;;;;2.50;1.13;;;23.50;43.70;;;;;;5020585;28;20353;-61
2021/05/30 12:39:03;;;;;;;2.58;1.20;;;23.50;43.70;;;;;;5018737;28;20099;-62
2021/05/30 12:41:31;;;;;;;2.45;1.00;;;23.50;43.80;;;;;;5017191;28;20091;-61
2021/05/30 12:44:11;;;;;;;2.45;1.25;;;23.50;43.80;;;;;;5022602;28;20449;-62
2021/05/30 12:46:38;;;;;;;2.42;1.30;;;23.60;43.90;;;;;;5020380;28;20091;-62
2021/05/30 12:49:15;;;;;;;2.40;1.20;;;23.60;43.90;;;;;;5016591;28;20112;-62
2021/05/30 12:51:57;;;;;;;2.75;1.20;;;23.60;43.80;;;;;;5017441;28;20601;-61
2021/05/30 12:54:23;;;;;;;4.55;1.30;;;23.70;43.80;;;;;;5011722;28;20040;-61